Time;durP1;ratioP1;P1;durP2;ratioP2;P2;SDS_P1;SDS_P2;PMS_P1;PMS_P2;Temp;Humidity;BMP_temperature;BMP_pressure;BME280_temperature;BME280_humidity;BME280_pressure;Samples;Min_cycle;Max_cycle;Signal;HPM_P1;HPM_P2
2022/05/25 00:00:18;;;;;;;0.00;0.00;;;;;;;;;;5014220;28;20044;-77
2022/05/25 00:02:45;;;;;;;0.08;0.08;;;;;;;;;;5014476;28;20026;-78
2022/05/25 00:05:11;;;;;;;0.08;0.08;;;;;;;;;;5014608;28;20029;-77
2022/05/25 00:07:40;;;;;;;0.98;0.22;;;;;;;;;;5030433;28;20160;-77
2022/05/25 00:10:08;;;;;;;0.10;0.10;;;;;;;;;;5014944;28;20403;-78
2022/05/25 00:12:36;;;;;;;2.10;0.52;;;;;;;;;;5010122;28;20040;-78
2022/05/25 00:15:04;;;;;;;2.65;0.88;;;;;;;;;;5013728;28;20029;-78
2022/05/25 00:17:29;;;;;;;0.00;0.00;;;;;;;;;;5012388;28;20046;-77
2022/05/25 00:20:01;;;;;;;0.00;0.00;;;;;;;;;;5014587;28;20133;-78
2022/05/25 00:22:51;;;;;;;0.95;0.88;;;;;;;;;;5014255;28;20022;-78
2022/05/25 00:25:22;;;;;;;0.00;0.00;;;;;;;;;;5026711;28;20337;-78
2022/05/25 00:27:51;;;;;;;0.10;0.10;;;;;;;;;;5030941;28;20161;-78
2022/05/25 00:30:17;;;;;;;0.00;0.00;;;;;;;;;;5012222;28;20029;-78
2022/05/25 00:32:43;;;;;;;0.10;0.10;;;;;;;;;;5014974;28;20036;-77
2022/05/25 00:35:14;;;;;;;1.55;1.17;;;;;;;;;;5012584;28;20030;-78
2022/05/25 00:37:40;;;;;;;0.10;0.10;;;;;;;;;;5013237;28;20036;-76
2022/05/25 00:40:08;;;;;;;0.20;0.10;;;;;;;;;;5013003;28;20034;-78
2022/05/25 00:42:36;;;;;;;0.17;0.08;;;;;;;;;;5013559;28;20030;-78
2022/05/25 00:45:05;;;;;;;1.45;0.30;;;;;;;;;;5015127;28;20030;-78
2022/05/25 00:47:31;;;;;;;1.15;0.70;;;;;;;;;;5013792;28;20410;-78
2022/05/25 00:49:56;;;;;;;0.00;0.00;;;;;;;;;;5012736;28;20030;-78
2022/05/25 00:52:24;;;;;;;0.25;0.10;;;;;;;;;;5012950;28;20335;-78
2022/05/25 00:54:53;;;;;;;0.40;0.32;;;;;;;;;;5011823;28;21609;-78
2022/05/25 00:57:31;;;;;;;1.20;0.52;;;;;;;;;;5012841;28;20495;-78
2022/05/25 01:00:24;;;;;;;0.00;0.00;;;;;;;;;;5012526;28;20539;-77
2022/05/25 01:02:50;;;;;;;;;;;;;;;;;;5010652;28;20069;-78
2022/05/25 01:05:20;;;;;;;0.05;0.05;;;;;;;;;;5013018;28;19913;-78
2022/05/25 01:08:03;;;;;;;0.43;0.30;;;;;;;;;;5009814;28;20075;-78
2022/05/25 01:10:55;;;;;;;0.10;0.10;;;;;;;;;;5012477;28;20041;-78
2022/05/25 01:13:33;;;;;;;0.93;0.52;;;;;;;;;;5013802;28;20458;-78
2022/05/25 01:16:36;;;;;;;0.20;0.20;;;;;;;;;;5012212;28;20038;-76
2022/05/25 01:19:02;;;;;;;;;;;;;;;;;;5011472;28;20022;-78
2022/05/25 01:21:39;;;;;;;3.10;0.88;;;;;;;;;;5007448;28;19928;-77
2022/05/25 01:24:13;;;;;;;0.57;0.57;;;;;;;;;;5008871;28;20045;-78
2022/05/25 01:26:58;;;;;;;0.15;0.15;;;;;;;;;;5008878;28;20455;-78
2022/05/25 01:29:48;;;;;;;0.08;0.08;;;;;;;;;;5011697;28;20355;-78
2022/05/25 01:32:35;;;;;;;1.75;0.60;;;;;;;;;;5010393;28;20037;-77
2022/05/25 01:35:04;;;;;;;0.00;0.00;;;;;;;;;;5003026;28;20029;-77
2022/05/25 01:37:46;;;;;;;0.25;0.10;;;;;;;;;;5010005;28;20038;-77
2022/05/25 01:40:21;;;;;;;0.08;0.05;;;;;;;;;;5013941;28;20030;-78
2022/05/25 01:42:55;;;;;;;0.63;0.40;;;;;;;;;;5012336;28;20091;-78
2022/05/25 01:45:24;;;;;;;0.77;0.28;;;;;;;;;;5007226;28;20037;-78
2022/05/25 01:47:52;;;;;;;0.20;0.20;;;;;;;;;;5007744;28;20034;-78
2022/05/25 01:50:30;;;;;;;0.30;0.20;;;;;;;;;;5009273;28;20029;-77
2022/05/25 01:52:59;;;;;;;3.55;0.32;;;;;;;;;;5009563;28;20084;-77
2022/05/25 01:55:28;;;;;;;0.15;0.15;;;;;;;;;;5006726;28;20036;-79
2022/05/25 01:58:00;;;;;;;0.35;0.35;;;;;;;;;;5007096;28;20045;-78
2022/05/25 02:00:35;;;;;;;0.50;0.30;;;;;;;;;;5007133;28;20075;-78
2022/05/25 02:05:57;;;;;;;0.47;0.35;;;;;;;;;;5007788;28;20060;-77
2022/05/25 02:08:38;;;;;;;0.10;0.10;;;;;;;;;;5010478;28;20032;-78
2022/05/25 02:11:12;;;;;;;1.33;1.23;;;;;;;;;;5011368;28;20048;-79
2022/05/25 02:14:03;;;;;;;0.30;0.30;;;;;;;;;;5011940;28;20452;-77
2022/05/25 02:16:30;;;;;;;0.00;0.00;;;;;;;;;;5013876;28;20026;-78
2022/05/25 02:19:05;;;;;;;0.80;0.80;;;;;;;;;;5012389;28;20022;-78
2022/05/25 02:22:04;;;;;;;0.30;0.13;;;;;;;;;;5012746;28;20026;-78
2022/05/25 02:24:48;;;;;;;0.30;0.30;;;;;;;;;;5011632;28;20503;-77
2022/05/25 02:27:19;;;;;;;0.70;0.28;;;;;;;;;;5011683;28;20121;-78
2022/05/25 02:29:47;;;;;;;0.15;0.15;;;;;;;;;;5011285;28;20026;-78
2022/05/25 02:32:36;;;;;;;0.28;0.28;;;;;;;;;;5012049;28;20029;-78
2022/05/25 02:35:04;;;;;;;0.32;0.32;;;;;;;;;;5009340;28;20044;-78
2022/05/25 02:37:31;;;;;;;0.25;0.20;;;;;;;;;;5012638;28;20034;-78
2022/05/25 02:39:59;;;;;;;1.38;0.93;;;;;;;;;;5012109;28;20040;-79
2022/05/25 02:42:24;;;;;;;0.10;0.10;;;;;;;;;;5013548;28;20030;-78
2022/05/25 02:44:50;;;;;;;5.25;1.33;;;;;;;;;;5011519;28;20564;-79
2022/05/25 02:47:15;;;;;;;0.28;0.28;;;;;;;;;;5016611;28;20029;-78
2022/05/25 02:49:41;;;;;;;0.63;0.40;;;;;;;;;;5016920;28;20127;-79
2022/05/25 02:52:08;;;;;;;0.20;0.20;;;;;;;;;;5013875;28;20030;-79
2022/05/25 02:54:37;;;;;;;0.15;0.15;;;;;;;;;;5017543;28;20026;-78
2022/05/25 02:57:03;;;;;;;1.02;0.40;;;;;;;;;;5016054;28;20025;-77
2022/05/25 02:59:31;;;;;;;0.75;0.63;;;;;;;;;;5014846;28;20432;-78
2022/05/25 03:02:01;;;;;;;0.52;0.52;;;;;;;;;;5016174;28;20021;-78
2022/05/25 03:04:29;;;;;;;0.38;0.38;;;;;;;;;;5016280;28;20439;-77
2022/05/25 03:06:54;;;;;;;1.45;0.82;;;;;;;;;;5015621;28;20026;-78
2022/05/25 03:09:19;;;;;;;0.40;0.32;;;;;;;;;;5016023;28;20028;-78
2022/05/25 03:11:45;;;;;;;0.35;0.17;;;;;;;;;;5012643;28;20522;-78
2022/05/25 03:14:10;;;;;;;0.10;0.10;;;;;;;;;;5012665;28;20382;-79
2022/05/25 03:16:36;;;;;;;0.63;0.57;;;;;;;;;;5015932;28;20033;-78
2022/05/25 03:19:01;;;;;;;0.30;0.30;;;;;;;;;;5016470;28;20049;-78
2022/05/25 03:21:26;;;;;;;0.20;0.20;;;;;;;;;;5015615;28;20036;-77
2022/05/25 03:23:52;;;;;;;1.02;0.65;;;;;;;;;;5016671;28;20469;-79
2022/05/25 03:26:18;;;;;;;0.50;0.13;;;;;;;;;;5015971;28;20025;-78
2022/05/25 03:28:43;;;;;;;0.30;0.30;;;;;;;;;;5015381;28;20382;-78
2022/05/25 03:31:09;;;;;;;0.55;0.55;;;;;;;;;;5017012;28;20018;-79
2022/05/25 03:33:34;;;;;;;0.45;0.40;;;;;;;;;;4999146;28;20053;-78
2022/05/25 03:36:00;;;;;;;0.85;0.40;;;;;;;;;;5016425;28;20041;-79
2022/05/25 03:38:27;;;;;;;0.35;0.30;;;;;;;;;;5016450;28;20484;-79
2022/05/25 03:40:53;;;;;;;0.30;0.15;;;;;;;;;;5015439;28;20075;-78
2022/05/25 03:43:18;;;;;;;0.30;0.30;;;;;;;;;;5015146;28;20025;-78
2022/05/25 03:45:45;;;;;;;0.40;0.40;;;;;;;;;;5016227;28;20042;-78
2022/05/25 03:48:13;;;;;;;0.00;0.00;;;;;;;;;;5015340;28;20041;-79
2022/05/25 03:50:39;;;;;;;0.70;0.70;;;;;;;;;;5015858;28;20026;-78
2022/05/25 03:53:07;;;;;;;0.65;0.65;;;;;;;;;;5015303;28;20060;-76
2022/05/25 03:55:36;;;;;;;1.35;0.35;;;;;;;;;;5014594;28;20152;-78
2022/05/25 03:58:04;;;;;;;0.13;0.10;;;;;;;;;;5015487;28;20021;-77
2022/05/25 04:00:31;;;;;;;0.63;0.30;;;;;;;;;;5013830;28;20498;-78
2022/05/25 04:02:59;;;;;;;0.68;0.68;;;;;;;;;;5013140;28;20034;-77
2022/05/25 04:05:25;;;;;;;0.45;0.45;;;;;;;;;;5015681;28;20025;-78
2022/05/25 04:07:55;;;;;;;0.30;0.30;;;;;;;;;;5015465;28;20030;-78
2022/05/25 04:10:20;;;;;;;0.52;0.32;;;;;;;;;;5031109;28;20375;-78
2022/05/25 04:12:46;;;;;;;3.85;0.63;;;;;;;;;;5014451;28;20026;-77
2022/05/25 04:15:16;;;;;;;0.38;0.38;;;;;;;;;;5013921;28;20030;-76
2022/05/25 04:17:47;;;;;;;0.10;0.10;;;;;;;;;;5014264;28;20049;-77
2022/05/25 04:20:15;;;;;;;0.82;0.68;;;;;;;;;;5015655;28;20410;-77
2022/05/25 04:22:41;;;;;;;1.63;0.57;;;;;;;;;;5015660;28;20118;-78
2022/05/25 04:25:08;;;;;;;0.55;0.55;;;;;;;;;;5018212;28;20382;-77
2022/05/25 04:27:37;;;;;;;1.05;0.80;;;;;;;;;;5016693;28;20447;-77
2022/05/25 04:30:07;;;;;;;1.50;1.20;;;;;;;;;;5017557;28;20040;-79
2022/05/25 04:32:33;;;;;;;0.30;0.10;;;;;;;;;;5014682;28;20025;-78
2022/05/25 04:34:58;;;;;;;0.88;0.45;;;;;;;;;;5015802;28;20052;-77
2022/05/25 04:40:12;;;;;;;0.20;0.20;;;;;;;;;;5009191;28;20056;-78
2022/05/25 04:42:38;;;;;;;0.10;0.10;;;;;;;;;;5011635;28;20108;-78
2022/05/25 04:45:04;;;;;;;1.80;0.85;;;;;;;;;;5014413;28;20046;-78
2022/05/25 04:47:35;;;;;;;0.05;0.05;;;;;;;;;;5014471;28;20049;-78
2022/05/25 04:50:00;;;;;;;0.13;0.13;;;;;;;;;;4998547;28;20026;-79
2022/05/25 04:52:30;;;;;;;0.85;0.75;;;;;;;;;;5013926;28;20076;-78
2022/05/25 04:54:55;;;;;;;0.65;0.65;;;;;;;;;;5014577;28;20440;-77
2022/05/25 04:57:22;;;;;;;0.60;0.60;;;;;;;;;;5013793;28;20040;-78
2022/05/25 04:59:51;;;;;;;0.47;0.38;;;;;;;;;;5013841;28;20022;-78
2022/05/25 05:02:17;;;;;;;0.32;0.32;;;;;;;;;;5013598;28;20022;-78
2022/05/25 05:04:43;;;;;;;0.43;0.43;;;;;;;;;;5012990;28;20769;-77
2022/05/25 05:07:09;;;;;;;0.55;0.55;;;;;;;;;;5014056;28;20033;-77
2022/05/25 05:09:35;;;;;;;0.73;0.73;;;;;;;;;;5013744;28;20362;-77
2022/05/25 05:12:01;;;;;;;1.08;0.82;;;;;;;;;;5013880;28;20025;-77
2022/05/25 05:14:26;;;;;;;1.33;1.23;;;;;;;;;;5013047;28;20040;-77
2022/05/25 05:16:57;;;;;;;0.08;0.08;;;;;;;;;;5011485;28;20087;-77
2022/05/25 05:19:24;;;;;;;2.30;0.95;;;;;;;;;;5013784;28;20030;-78
2022/05/25 05:21:50;;;;;;;2.45;1.17;;;;;;;;;;5013511;28;20044;-78
2022/05/25 05:24:15;;;;;;;1.95;1.55;;;;;;;;;;5014243;28;20363;-76
2022/05/25 05:26:41;;;;;;;0.40;0.40;;;;;;;;;;5013572;28;20036;-77
2022/05/25 05:29:07;;;;;;;0.28;0.28;;;;;;;;;;5013829;28;20455;-77
2022/05/25 05:31:33;;;;;;;0.88;0.88;;;;;;;;;;5012897;28;20111;-77
2022/05/25 05:33:59;;;;;;;1.23;0.38;;;;;;;;;;5013234;28;20463;-77
2022/05/25 05:36:31;;;;;;;0.90;0.32;;;;;;;;;;5013840;28;20029;-76
2022/05/25 05:39:00;;;;;;;1.10;0.98;;;;;;;;;;5029470;28;20344;-78
2022/05/25 05:41:28;;;;;;;0.17;0.17;;;;;;;;;;5013174;28;20026;-77
2022/05/25 05:43:53;;;;;;;2.15;1.70;;;;;;;;;;5013201;28;20026;-77
2022/05/25 05:46:20;;;;;;;0.40;0.40;;;;;;;;;;5012104;28;20136;-77
2022/05/25 05:48:45;;;;;;;0.60;0.32;;;;;;;;;;5013812;28;20383;-77
2022/05/25 05:51:11;;;;;;;0.50;0.50;;;;;;;;;;5013543;28;20086;-78
2022/05/25 05:53:40;;;;;;;0.70;0.70;;;;;;;;;;5013022;28;20028;-77
2022/05/25 05:56:06;;;;;;;0.32;0.32;;;;;;;;;;5011851;28;20053;-77
2022/05/25 05:58:31;;;;;;;0.55;0.38;;;;;;;;;;5013058;28;20394;-77
2022/05/25 06:00:56;;;;;;;0.60;0.60;;;;;;;;;;5011889;28;20025;-76
2022/05/25 06:03:22;;;;;;;0.63;0.45;;;;;;;;;;5012566;28;20474;-77
2022/05/25 06:05:49;;;;;;;0.50;0.47;;;;;;;;;;5013769;28;20022;-76
2022/05/25 06:08:30;;;;;;;0.65;0.65;;;;;;;;;;5012051;28;20097;-76
2022/05/25 06:11:04;;;;;;;0.22;0.22;;;;;;;;;;5010733;28;20118;-77
2022/05/25 06:13:31;;;;;;;0.43;0.43;;;;;;;;;;5009497;28;20045;-77
2022/05/25 06:21:26;;;;;;;0.70;0.50;;;;;;;;;;5013875;28;20124;-78
2022/05/25 06:23:52;;;;;;;0.05;0.03;;;;;;;;;;5012646;28;20117;-77
2022/05/25 06:26:17;;;;;;;0.45;0.30;;;;;;;;;;5011009;28;20030;-78
2022/05/25 06:28:43;;;;;;;0.10;0.10;;;;;;;;;;5012870;28;20038;-77
2022/05/25 06:31:09;;;;;;;1.08;0.50;;;;;;;;;;5012133;28;20029;-77
2022/05/25 06:33:38;;;;;;;0.20;0.20;;;;;;;;;;5011843;28;20482;-77
2022/05/25 06:36:14;;;;;;;0.40;0.40;;;;;;;;;;5013873;28;20075;-76
2022/05/25 06:38:40;;;;;;;0.30;0.25;;;;;;;;;;5010853;28;20041;-77
2022/05/25 06:41:05;;;;;;;0.10;0.10;;;;;;;;;;5012986;28;20032;-78
2022/05/25 06:43:31;;;;;;;0.68;0.30;;;;;;;;;;5013533;28;20036;-77
2022/05/25 06:45:59;;;;;;;0.20;0.20;;;;;;;;;;5012574;28;20026;-77
2022/05/25 06:48:25;;;;;;;0.85;0.52;;;;;;;;;;5013394;28;20030;-78
2022/05/25 06:50:50;;;;;;;0.35;0.35;;;;;;;;;;5012285;28;20517;-77
2022/05/25 06:53:15;;;;;;;0.00;0.00;;;;;;;;;;5013012;28;20045;-77
2022/05/25 06:55:41;;;;;;;0.38;0.38;;;;;;;;;;5012392;28;20038;-78
2022/05/25 06:58:06;;;;;;;0.73;0.47;;;;;;;;;;5014128;28;20104;-77
2022/05/25 07:00:32;;;;;;;0.20;0.20;;;;;;;;;;5013348;28;20022;-77
2022/05/25 07:03:02;;;;;;;0.17;0.17;;;;;;;;;;5012531;28;20050;-78
2022/05/25 07:05:30;;;;;;;0.60;0.60;;;;;;;;;;5012417;28;20049;-78
2022/05/25 07:07:55;;;;;;;0.00;0.00;;;;;;;;;;5011733;28;20029;-78
2022/05/25 07:10:20;;;;;;;0.15;0.10;;;;;;;;;;4995294;28;20022;-78
2022/05/25 07:12:48;;;;;;;0.40;0.40;;;;;;;;;;5014216;28;20041;-77
2022/05/25 07:15:16;;;;;;;0.80;0.20;;;;;;;;;;5012650;28;20022;-78
2022/05/25 07:17:42;;;;;;;0.20;0.20;;;;;;;;;;5011842;28;20033;-77
2022/05/25 07:20:09;;;;;;;0.10;0.10;;;;;;;;;;5012047;28;20022;-77
2022/05/25 07:22:35;;;;;;;11.23;0.90;;;;;;;;;;5010637;28;20451;-76
2022/05/25 07:25:03;;;;;;;0.10;0.10;;;;;;;;;;5011781;28;20104;-78
2022/05/25 07:27:29;;;;;;;0.52;0.30;;;;;;;;;;5012935;28;20025;-79
2022/05/25 07:29:54;;;;;;;1.55;0.75;;;;;;;;;;5012238;28;20505;-77
2022/05/25 07:32:20;;;;;;;0.30;0.30;;;;;;;;;;5015503;28;20128;-78
2022/05/25 07:34:50;;;;;;;0.10;0.10;;;;;;;;;;5015580;28;20030;-78
2022/05/25 07:37:57;;;;;;;0.00;0.00;;;;;;;;;;5017214;28;20169;-79
2022/05/25 07:40:33;;;;;;;0.30;0.25;;;;;;;;;;5012376;28;20408;-79
2022/05/25 07:43:02;;;;;;;0.25;0.25;;;;;;;;;;5016403;28;20033;-79
2022/05/25 07:45:28;;;;;;;0.30;0.30;;;;;;;;;;4999685;28;20040;-79
2022/05/25 07:47:56;;;;;;;0.82;0.25;;;;;;;;;;5016155;28;20026;-78
2022/05/25 07:50:23;;;;;;;0.68;0.45;;;;;;;;;;5015912;28;20079;-77
2022/05/25 07:52:50;;;;;;;0.13;0.13;;;;;;;;;;5016108;28;20037;-78
2022/05/25 07:55:16;;;;;;;0.20;0.20;;;;;;;;;;5015334;28;20379;-79
2022/05/25 07:57:47;;;;;;;0.17;0.08;;;;;;;;;;5015137;28;20049;-79
2022/05/25 08:00:15;;;;;;;5.63;0.40;;;;;;;;;;5015884;28;20463;-78
2022/05/25 08:05:47;;;;;;;0.40;0.40;;;;;;;;;;5015234;28;20203;-78
2022/05/25 08:08:17;;;;;;;3.13;0.30;;;;;;;;;;5013292;28;20124;-79
2022/05/25 08:10:46;;;;;;;1.35;0.85;;;;;;;;;;5014919;28;20022;-79
2022/05/25 08:13:13;;;;;;;1.17;0.17;;;;;;;;;;5012132;28;20022;-79
2022/05/25 08:15:42;;;;;;;0.52;0.50;;;;;;;;;;5015689;28;20494;-79
2022/05/25 08:18:12;;;;;;;0.35;0.22;;;;;;;;;;5015798;28;20080;-78
2022/05/25 08:20:38;;;;;;;0.20;0.20;;;;;;;;;;5016433;28;20041;-78
2022/05/25 08:23:05;;;;;;;0.88;0.30;;;;;;;;;;5014210;28;20029;-78
2022/05/25 08:25:34;;;;;;;0.52;0.10;;;;;;;;;;5014687;28;20026;-78
2022/05/25 08:28:00;;;;;;;0.13;0.13;;;;;;;;;;5015835;28;20443;-78
2022/05/25 08:30:26;;;;;;;0.00;0.00;;;;;;;;;;5015463;28;20088;-79
2022/05/25 08:32:51;;;;;;;0.95;0.40;;;;;;;;;;5014958;28;20026;-78
2022/05/25 08:35:17;;;;;;;1.00;0.10;;;;;;;;;;5015340;28;20036;-79
2022/05/25 08:37:42;;;;;;;0.25;0.00;;;;;;;;;;5016057;28;20029;-79
2022/05/25 08:40:12;;;;;;;0.00;0.00;;;;;;;;;;5015328;28;20036;-79
2022/05/25 08:42:45;;;;;;;0.77;0.45;;;;;;;;;;5014908;28;20117;-78
2022/05/25 08:45:12;;;;;;;0.00;0.00;;;;;;;;;;5031693;28;20029;-79
2022/05/25 08:47:45;;;;;;;0.17;0.10;;;;;;;;;;5014885;28;20037;-78
2022/05/25 08:50:11;;;;;;;0.65;0.60;;;;;;;;;;5015004;28;20033;-79
2022/05/25 08:52:37;;;;;;;0.60;0.52;;;;;;;;;;5012753;28;20045;-79
2022/05/25 08:55:06;;;;;;;6.03;1.25;;;;;;;;;;5015197;28;20053;-79
2022/05/25 08:57:46;;;;;;;0.90;0.40;;;;;;;;;;5014210;28;20061;-79
2022/05/25 09:00:16;;;;;;;0.30;0.30;;;;;;;;;;5008401;28;20539;-79
2022/05/25 09:02:52;;;;;;;1.52;0.47;;;;;;;;;;5013391;28;20029;-79
2022/05/25 09:05:25;;;;;;;0.10;0.10;;;;;;;;;;5015055;28;20049;-81
2022/05/25 09:07:53;;;;;;;1.63;0.85;;;;;;;;;;5009754;28;20112;-79
2022/05/25 09:10:21;;;;;;;0.30;0.22;;;;;;;;;;5015620;28;20093;-81
2022/05/25 09:12:58;;;;;;;0.10;0.10;;;;;;;;;;5014873;28;20045;-81
2022/05/25 09:15:27;;;;;;;0.52;0.28;;;;;;;;;;5000100;28;20089;-80
2022/05/25 09:18:02;;;;;;;0.52;0.52;;;;;;;;;;5002164;28;20415;-83
2022/05/25 09:20:36;;;;;;;0.35;0.20;;;;;;;;;;5007445;28;20014;-84
2022/05/25 09:23:03;;;;;;;0.45;0.32;;;;;;;;;;5001154;28;20014;-85
2022/05/25 09:25:30;;;;;;;0.10;0.10;;;;;;;;;;5004036;28;20017;-82
2022/05/25 09:28:07;;;;;;;0.28;0.10;;;;;;;;;;5000270;28;20040;-81
2022/05/25 09:30:36;;;;;;;0.20;0.20;;;;;;;;;;5006819;28;20040;-83
2022/05/25 09:33:11;;;;;;;0.00;0.00;;;;;;;;;;5001488;28;20026;-82
2022/05/25 09:35:50;;;;;;;0.57;0.20;;;;;;;;;;5000848;28;20383;-81
2022/05/25 09:38:42;;;;;;;0.85;0.25;;;;;;;;;;4997678;28;20036;-80
2022/05/25 09:41:13;;;;;;;0.60;0.43;;;;;;;;;;5009245;28;20026;-81
2022/05/25 09:43:40;;;;;;;0.00;0.00;;;;;;;;;;5014054;28;20018;-82
2022/05/25 09:46:16;;;;;;;0.10;0.10;;;;;;;;;;5015474;28;20030;-81
2022/05/25 09:48:58;;;;;;;0.55;0.20;;;;;;;;;;5014181;28;20056;-82
2022/05/25 09:51:29;;;;;;;0.00;0.00;;;;;;;;;;5014464;28;20517;-81
2022/05/25 09:54:27;;;;;;;0.47;0.47;;;;;;;;;;5014679;28;20344;-80
2022/05/25 09:57:24;;;;;;;0.25;0.25;;;;;;;;;;5014633;28;20033;-82
2022/05/25 09:59:55;;;;;;;0.32;0.17;;;;;;;;;;5015064;28;20121;-80
2022/05/25 10:03:08;;;;;;;0.22;0.20;;;;;;;;;;5012615;28;20084;-79
2022/05/25 10:05:51;;;;;;;0.38;0.25;;;;;;;;;;5005185;28;20486;-79
2022/05/25 10:08:37;;;;;;;0.22;0.22;;;;;;;;;;5001868;28;20026;-80
2022/05/25 10:11:28;;;;;;;2.85;0.25;;;;;;;;;;5001878;28;20136;-80
2022/05/25 10:13:57;;;;;;;0.10;0.10;;;;;;;;;;5006655;28;20072;-79
2022/05/25 10:16:28;;;;;;;0.00;0.00;;;;;;;;;;5003661;28;20097;-80
2022/05/25 10:18:57;;;;;;;0.20;0.13;;;;;;;;;;5012607;28;20022;-81
2022/05/25 10:21:30;;;;;;;0.10;0.10;;;;;;;;;;5010147;28;20022;-83
2022/05/25 10:23:57;;;;;;;0.00;0.00;;;;;;;;;;4994932;28;20466;-82
2022/05/25 10:26:47;;;;;;;0.30;0.30;;;;;;;;;;5010736;28;20030;-83
2022/05/25 10:36:45;;;;;;;0.00;0.00;;;;;;;;;;5021002;28;20048;-82
2022/05/25 10:38:40;;;;;;;0.10;0.10;;;;;;;;;;5012686;28;20055;-81
2022/05/25 10:44:02;;;;;;;0.10;0.10;;;;;;;;;;5009163;28;20180;-80
2022/05/25 10:46:30;;;;;;;2.20;0.90;;;;;;;;;;5003556;28;20470;-81
2022/05/25 10:49:07;;;;;;;0.15;0.15;;;;;;;;;;4999830;28;20037;-80
2022/05/25 10:51:45;;;;;;;0.32;0.17;;;;;;;;;;5008586;28;20030;-81
2022/05/25 10:54:52;;;;;;;0.00;0.00;;;;;;;;;;5004490;28;20030;-78
2022/05/25 10:57:21;;;;;;;1.13;1.02;;;;;;;;;;5012422;28;20038;-80
2022/05/25 11:00:09;;;;;;;0.50;0.50;;;;;;;;;;5013952;28;20060;-81
2022/05/25 11:02:59;;;;;;;0.00;0.00;;;;;;;;;;5013278;28;20026;-80
2022/05/25 11:05:51;;;;;;;0.10;0.10;;;;;;;;;;5012769;28;20149;-80
2022/05/25 11:08:35;;;;;;;0.30;0.22;;;;;;;;;;5010999;28;20467;-79
2022/05/25 11:11:24;;;;;;;0.13;0.13;;;;;;;;;;5016944;28;20533;-81
2022/05/25 11:14:06;;;;;;;0.45;0.10;;;;;;;;;;5032166;28;20096;-79
2022/05/25 11:16:50;;;;;;;1.10;0.38;;;;;;;;;;5013095;28;20121;-82
2022/05/25 11:19:52;;;;;;;0.10;0.10;;;;;;;;;;5016387;28;20030;-83
2022/05/25 11:22:38;;;;;;;0.10;0.10;;;;;;;;;;5013411;28;20021;-84
2022/05/25 11:25:21;;;;;;;0.75;0.52;;;;;;;;;;5015732;28;20371;-84
2022/05/25 11:28:08;;;;;;;0.00;0.00;;;;;;;;;;5031273;28;20044;-82
2022/05/25 11:30:49;;;;;;;0.00;0.00;;;;;;;;;;5014669;28;20040;-81
2022/05/25 11:33:52;;;;;;;0.20;0.20;;;;;;;;;;5010270;28;20034;-77
2022/05/25 11:36:26;;;;;;;0.00;0.00;;;;;;;;;;4998609;28;20638;-77
2022/05/25 11:39:12;;;;;;;10.02;1.13;;;;;;;;;;5014593;28;20108;-78
2022/05/25 11:41:52;;;;;;;0.10;0.10;;;;;;;;;;5017269;28;20030;-78
2022/05/25 11:44:38;;;;;;;0.43;0.30;;;;;;;;;;5009367;28;20149;-79
2022/05/25 11:47:38;;;;;;;0.20;0.20;;;;;;;;;;5013326;28;20017;-79
2022/05/25 11:50:31;;;;;;;0.00;0.00;;;;;;;;;;5005269;28;20034;-78
2022/05/25 11:53:07;;;;;;;0.45;0.43;;;;;;;;;;5015481;28;20014;-79
2022/05/25 11:55:47;;;;;;;0.00;0.00;;;;;;;;;;5016520;28;20036;-79
2022/05/25 11:58:43;;;;;;;0.47;0.10;;;;;;;;;;4999593;28;20013;-79
2022/05/25 12:01:16;;;;;;;0.38;0.20;;;;;;;;;;5016806;28;20041;-80
2022/05/25 12:03:50;;;;;;;0.00;0.00;;;;;;;;;;5012015;28;20014;-78
2022/05/25 12:06:34;;;;;;;3.40;0.45;;;;;;;;;;5010558;28;20026;-80
2022/05/25 12:09:14;;;;;;;0.20;0.10;;;;;;;;;;5016675;28;20108;-78
2022/05/25 12:11:48;;;;;;;0.00;0.00;;;;;;;;;;5015765;28;20022;-78
2022/05/25 12:14:18;;;;;;;0.98;0.20;;;;;;;;;;5031736;28;20018;-80
2022/05/25 12:16:45;;;;;;;0.20;0.10;;;;;;;;;;5016516;28;20044;-79
2022/05/25 12:19:17;;;;;;;0.32;0.08;;;;;;;;;;5015063;28;20030;-79
2022/05/25 12:21:47;;;;;;;0.00;0.00;;;;;;;;;;5015408;28;20092;-79
2022/05/25 12:24:19;;;;;;;0.00;0.00;;;;;;;;;;5015519;28;20033;-77
2022/05/25 12:26:45;;;;;;;;;;;;;;;;;;5009587;28;20048;-78
2022/05/25 12:29:13;;;;;;;0.00;0.00;;;;;;;;;;5015649;28;20381;-79
2022/05/25 12:31:41;;;;;;;1.45;0.98;;;;;;;;;;5016361;28;20109;-77
2022/05/25 12:34:10;;;;;;;0.30;0.30;;;;;;;;;;5015173;28;20026;-77
2022/05/25 12:36:38;;;;;;;0.20;0.15;;;;;;;;;;5014578;28;20427;-76
2022/05/25 12:39:03;;;;;;;0.00;0.00;;;;;;;;;;4998589;28;20037;-79
2022/05/25 12:41:35;;;;;;;0.47;0.05;;;;;;;;;;5014837;28;20359;-77
2022/05/25 12:49:42;;;;;;;0.00;0.00;;;;;;;;;;5015076;28;20037;-77
2022/05/25 12:52:28;;;;;;;0.20;0.20;;;;;;;;;;5008840;28;20026;-76
2022/05/25 12:55:00;;;;;;;0.20;0.17;;;;;;;;;;5013597;28;20034;-77
2022/05/25 12:57:37;;;;;;;0.30;0.20;;;;;;;;;;5013938;28;20021;-78
2022/05/25 13:00:21;;;;;;;0.13;0.13;;;;;;;;;;5012949;28;20417;-77
2022/05/25 13:02:48;;;;;;;0.90;0.45;;;;;;;;;;5007416;28;20453;-77
2022/05/25 13:05:46;;;;;;;0.00;0.00;;;;;;;;;;5007604;28;20017;-77
2022/05/25 13:08:48;;;;;;;2.38;0.80;;;;;;;;;;5012104;28;20374;-78
2022/05/25 13:11:48;;;;;;;1.08;0.98;;;;;;;;;;5010672;28;20068;-77
2022/05/25 13:14:16;;;;;;;0.75;0.65;;;;;;;;;;5011097;28;20413;-78
2022/05/25 13:16:51;;;;;;;0.10;0.10;;;;;;;;;;5008468;28;20026;-77
2022/05/25 13:19:29;;;;;;;0.00;0.00;;;;;;;;;;5014599;28;20022;-77
2022/05/25 13:22:03;;;;;;;0.45;0.22;;;;;;;;;;5014556;28;20410;-77
2022/05/25 13:25:02;;;;;;;0.22;0.22;;;;;;;;;;5013828;28;20503;-77
2022/05/25 13:27:42;;;;;;;0.20;0.10;;;;;;;;;;5014418;28;20033;-78
2022/05/25 13:30:18;;;;;;;0.05;0.05;;;;;;;;;;5013300;28;20538;-77
2022/05/25 13:32:50;;;;;;;0.00;0.00;;;;;;;;;;5013420;28;20029;-77
2022/05/25 13:35:21;;;;;;;0.45;0.30;;;;;;;;;;5014239;28;20467;-76
2022/05/25 13:37:52;;;;;;;0.30;0.17;;;;;;;;;;5014224;28;20026;-77
2022/05/25 13:40:26;;;;;;;0.28;0.28;;;;;;;;;;5014360;28;20104;-77
2022/05/25 13:42:53;;;;;;;0.10;0.10;;;;;;;;;;5012016;28;20029;-77
2022/05/25 13:45:25;;;;;;;0.52;0.32;;;;;;;;;;4977871;28;20030;-78
2022/05/25 13:47:53;;;;;;;0.00;0.00;;;;;;;;;;5025491;28;20026;-78
2022/05/25 13:50:32;;;;;;;0.60;0.10;;;;;;;;;;4976934;28;1061459;-77
2022/05/25 13:52:59;;;;;;;0.55;0.52;;;;;;;;;;5013826;28;20017;-76
2022/05/25 13:55:27;;;;;;;0.50;0.50;;;;;;;;;;5014837;28;20022;-77
2022/05/25 13:57:59;;;;;;;0.00;0.00;;;;;;;;;;5014849;28;20049;-77
2022/05/25 14:00:30;;;;;;;;;;;;;;;;;;5014170;28;20021;-76
2022/05/25 14:03:05;;;;;;;0.00;0.00;;;;;;;;;;5014524;28;19909;-75
2022/05/25 14:05:37;;;;;;;0.00;0.00;;;;;;;;;;5014292;28;20036;-77
2022/05/25 14:11:23;;;;;;;0.20;0.20;;;;;;;;;;5014341;28;20403;-77
2022/05/25 14:13:49;;;;;;;0.35;0.20;;;;;;;;;;5013595;28;20351;-76
2022/05/25 14:16:16;;;;;;;0.00;0.00;;;;;;;;;;5014553;28;20037;-76
2022/05/25 14:18:44;;;;;;;1.35;0.65;;;;;;;;;;4997200;28;20040;-76
2022/05/25 14:21:28;;;;;;;3.20;0.95;;;;;;;;;;5014489;28;20164;-76
2022/05/25 14:23:54;;;;;;;0.00;0.00;;;;;;;;;;5013799;28;20021;-76
2022/05/25 14:26:34;;;;;;;0.10;0.10;;;;;;;;;;5013457;28;20030;-76
2022/05/25 14:29:08;;;;;;;0.10;0.10;;;;;;;;;;5013371;28;20034;-76
2022/05/25 14:31:43;;;;;;;0.47;0.38;;;;;;;;;;4997389;28;20048;-76
2022/05/25 14:34:12;;;;;;;0.08;0.08;;;;;;;;;;5014116;28;20026;-76
2022/05/25 14:36:37;;;;;;;1.65;0.10;;;;;;;;;;5013438;28;20113;-76
2022/05/25 14:39:03;;;;;;;0.32;0.22;;;;;;;;;;5013401;28;20105;-76
2022/05/25 14:41:53;;;;;;;0.65;0.25;;;;;;;;;;5015606;28;20458;-76
2022/05/25 14:44:33;;;;;;;0.32;0.17;;;;;;;;;;5017530;28;20013;-76
2022/05/25 14:46:59;;;;;;;0.00;0.00;;;;;;;;;;5017325;28;20464;-76
2022/05/25 14:49:25;;;;;;;0.43;0.30;;;;;;;;;;5018111;28;20168;-76
2022/05/25 14:51:50;;;;;;;0.00;0.00;;;;;;;;;;5018066;28;20034;-76
2022/05/25 14:54:24;;;;;;;0.00;0.00;;;;;;;;;;5018351;28;20057;-76
2022/05/25 14:56:51;;;;;;;0.50;0.50;;;;;;;;;;5017134;28;20029;-76
2022/05/25 14:59:43;;;;;;;6.32;1.10;;;;;;;;;;5017154;28;20033;-76
2022/05/25 15:02:24;;;;;;;0.28;0.28;;;;;;;;;;5016667;28;20379;-76
2022/05/25 15:04:51;;;;;;;0.00;0.00;;;;;;;;;;5000724;28;20367;-76
2022/05/25 15:07:26;;;;;;;0.00;0.00;;;;;;;;;;5001012;28;20025;-76
2022/05/25 15:09:51;;;;;;;0.13;0.13;;;;;;;;;;5017015;28;20374;-76
2022/05/25 15:12:24;;;;;;;0.13;0.13;;;;;;;;;;5016900;28;20032;-75
2022/05/25 15:20:52;;;;;;;0.22;0.22;;;;;;;;;;5017032;28;20036;-76
2022/05/25 15:23:28;;;;;;;0.00;0.00;;;;;;;;;;5000229;28;20022;-76
2022/05/25 15:25:54;;;;;;;0.00;0.00;;;;;;;;;;5017557;28;20029;-78
2022/05/25 15:28:19;;;;;;;0.38;0.35;;;;;;;;;;5013198;28;20033;-78
2022/05/25 15:30:50;;;;;;;0.00;0.00;;;;;;;;;;5016762;28;20421;-78
2022/05/25 15:33:18;;;;;;;0.20;0.10;;;;;;;;;;5016748;28;20025;-78
2022/05/25 15:35:45;;;;;;;0.03;0.00;;;;;;;;;;5016645;28;20033;-79
2022/05/25 15:38:12;;;;;;;7.70;0.65;;;;;;;;;;5017374;28;20391;-78
2022/05/25 15:40:44;;;;;;;0.15;0.15;;;;;;;;;;5016858;28;20462;-79
2022/05/25 15:43:11;;;;;;;0.00;0.00;;;;;;;;;;5016806;28;20033;-77
2022/05/25 15:45:41;;;;;;;0.20;0.20;;;;;;;;;;5017572;28;20351;-77
2022/05/25 15:48:13;;;;;;;0.00;0.00;;;;;;;;;;5015384;28;20119;-77
2022/05/25 15:50:43;;;;;;;0.20;0.20;;;;;;;;;;5011481;28;20443;-77